Tiempo atmosférico en la estación meteorológica de Fresno De Sayago, Zamora (804 m.)



Fecha
DESCASC
Temp. máxima en grados centígrados (hora)
DESCASC
Temp. mínima en grados centígrados (hora)
DESCASC
Temp. media en grados centígrados
DESCASC
Racha de viento máxima en m/sg (hora)
DESCASC
Velocidad máxima media en intervalos de 10 minutos(hora)
DESCASC
Precipitaciones diarias en mm
DESCASC
Precipitaciones de 00:00 a 06:00 en mm
DESCASC
Precipitaciones de 06:00 a 12:00 en mm
DESCASC
Precipitaciones de 12:00 a 18:00 en mm
DESCASC
Precipitaciones de 18:00 a 24:00 en mm
DESCASC
13-10-2019 20.9 (16:00) 11.4 (04:10) 16.1 16.39 (09:40) 11.39 (09:30) 0 0 0 0 0
12-10-2019 26.5 (16:00) 13 (05:10) 19.8 19.72 (16:40) 12.5 (14:10) 0 0 0 0 0
10-10-2019 24.4 (17:10) 6.4 (00:00) 15.4 11.67 (08:40) 7.22 (08:40) 0 0 0 0 0
09-10-2019 23 (17:30) 7.4 (00:00) 15.2 8.33 (11:10) 6.67 (11:30) 0 0 0 0 0
08-10-2019 27 (16:50) 8.8 (00:00) 17.9 10 (18:30) 6.94 (16:10) 0 0 0 0 0
07-10-2019 30.4 (18:50) 7.1 (00:00) 18.7 5 (11:10) 3.89 (11:00) 0 0 0 0 0
06-10-2019 25.6 (16:20) 5.3 (00:00) 15.5 7.78 (13:50) 5 (17:40) 0 0 0 0 0
05-10-2019 22.9 (18:20) 4.5 (08:30) 13.7 8.06 (16:00) 5.83 (18:50) 0 0 0 0 0
04-10-2019 23.4 (17:30) 9 (00:00) 16.2 8.89 (18:40) 5.56 (18:40) 0 0 0 0 0
03-10-2019 25.6 (17:50) 3.5 (00:00) 14.6 10 (15:40) 5.28 (13:40) 0 0 0 0 0
02-10-2019 23.6 (17:20) 4.3 (00:00) 14 10.83 (01:40) 8.06 (02:20) 0 0 0 0 0
01-10-2019 22.5 (17:30) 12.6 (00:00) 17.6 13.33 (16:10) 8.61 (17:50) 0 0 0 0 0
30-09-2019 27.6 (16:30) 10 (00:00) 18.8 9.72 (17:40) 5.83 (18:20) 0 0 0 0 0
29-09-2019 26.3 (16:50) 7.3 (00:00) 16.8 10.83 (16:40) 6.67 (15:50) 0 0 0 0 0
28-09-2019 27.5 (17:30) 4.6 (00:00) 16 5.83 (18:30) 3.89 (18:10) 0 0 0 0 0
27-09-2019 24 (16:30) 6.4 (00:00) 15.2 10.56 (18:40) 7.22 (17:50) 0 0 0 0 0
26-09-2019 24.9 (17:30) 7.2 (00:00) 16 8.89 (17:40) 5.83 (17:40) 0 0 0 0 0
25-09-2019 21.8 (16:30) 6.8 (00:00) 14.3 8.89 (18:00) 5.28 (18:30) 0 0 0 0 0
24-09-2019 22.5 (16:50) 9.4 (00:00) 15.9 13.33 (16:40) 10.28 (19:00) 0 0 0 0 0
23-09-2019 22.4 (18:30) 6.3 (00:00) 14.3 11.39 (16:40) 5.83 (16:10) 0 0 0 0 0
22-09-2019 19.8 (16:30) 8.6 (00:00) 14.2 13.33 (00:10) 9.72 (00:10) 0.6 0.6 0 0 0
21-09-2019 20.5 (15:10) 12.7 (00:00) 16.6 15 (18:10) 10.56 (18:10) 4 0 0.6 0.8 2.6
20-09-2019 26 (16:00) 12.7 (00:00) 19.3 11.94 (19:40) 8.33 (13:40) 0 0 0 0 0
19-09-2019 29.1 (15:50) 11.6 (00:00) 20.4 7.22 (09:40) 5.83 (09:50) 0 0 0 0 0
18-09-2019 27.8 (19:10) 10.7 (00:00) 19.2 6.94 (03:00) 5.56 (03:00) 0 0 0 0 0
17-09-2019 27.9 (15:40) 12.8 (00:00) 20.3 10.56 (18:00) 8.06 (17:50) 0 0 0 0 0

Gráficas

Temp. máximas Temp. mínimas Temp. medias Precipitaciones Rachas de viento máximas Velocidades máximas media en intervalos de 10 minutos

Datos horarios

Fecha y hora oficial Temperatura (ºC) Velocidad del viento (km/h) Dirección del viento Racha (km/h) Dirección de racha Precipitación (mm) Presión (hPa) Tendencia (hPa) Humedad (%)
2019-10-16 23:00:00 13 23 Sudoeste 35 Sudoeste 0 -- -- 65
2019-10-16 22:00:00 13.1 23 Sudoeste 38 Sudoeste 0 -- -- 65
2019-10-16 21:00:00 13.2 22 Sudoeste 37 Sudoeste 0 -- -- 65
2019-10-16 20:00:00 13.5 26 Sudoeste 63 Sudoeste 0 -- -- 63
2019-10-16 19:00:00 14.4 30 Sudoeste 49 Sudoeste 0 -- -- 59
2019-10-16 18:00:00 15.1 23 Sudoeste 38 Sudoeste 0 -- -- 56
2019-10-16 17:00:00 15.9 25 Sudoeste 36 Sudoeste 0 -- -- 53
2019-10-16 16:00:00 16.2 27 Sudoeste 42 Sudoeste 0 -- -- 52
2019-10-16 15:00:00 15.3 28 Sudoeste 40 Sudoeste 0 -- -- 54
2019-10-16 14:00:00 16 27 Sudoeste 54 Sudoeste 0 -- -- 53
2019-10-16 13:00:00 14.9 26 Sudoeste 41 Sudoeste 0 -- -- 56
2019-10-16 12:00:00 12.9 23 Sudoeste 36 Sudoeste 0 -- -- 65
2019-10-16 11:00:00 10.1 25 Sudoeste 35 Sur 0 -- -- 77
2019-10-16 10:00:00 8.3 18 Sur 24 Sudoeste 0 -- -- 84
2019-10-16 09:00:00 7.6 14 Sudoeste 24 Sudoeste 0 -- -- 88
2019-10-16 08:00:00 6.3 13 Sudoeste 18 Sudoeste 0 -- -- 95
2019-10-16 07:00:00 7.1 13 Sudoeste 28 Sudoeste 0 -- -- 91
2019-10-16 06:00:00 6.9 13 Sudoeste 17 Sudoeste 0 -- -- 95
2019-10-16 05:00:00 7.2 10 Sur 14 Sur 0 -- -- 95
2019-10-16 04:00:00 7.8 7 Sur 15 Oeste 0 -- -- 87
2019-10-16 03:00:00 8.4 11 Sudoeste 18 Sudoeste 0 -- -- 86
2019-10-16 02:00:00 8.6 13 Sudoeste 19 Sudoeste 0 -- -- 86
2019-10-16 01:00:00 8.8 11 Sudoeste 17 Sudoeste 0 -- -- 85
2019-10-16 00:00:00 9.1 6 Sudoeste 17 Sudoeste 0 -- -- 81
2019-10-15 23:00:00 10 12 Sudoeste 26 Oeste 0 -- -- 77
2019-10-15 22:00:00 11 17 Oeste 24 Oeste 0 -- -- 68
2019-10-15 21:00:00 10.7 8 Sudoeste 18 Oeste 0 -- -- 72
2019-10-15 20:00:00 11.6 14 Sudoeste 28 Sudoeste 0 -- -- 63
2019-10-15 19:00:00 12.4 22 Sudoeste 35 Sudoeste 0 -- -- 61
2019-10-15 18:00:00 12.9 22 Sudoeste 32 Sudoeste 0 -- -- 54
2019-10-15 17:00:00 13 19 Sudoeste 31 Sudoeste 0 -- -- 61
2019-10-15 16:00:00 12.1 23 Oeste 33 Sudoeste 0 -- -- 64
2019-10-15 15:00:00 12.7 24 Sudoeste 36 Sudoeste 0 -- -- 64
2019-10-15 14:00:00 12 20 Sudoeste 32 Sudoeste 0 -- -- 69
2019-10-15 13:00:00 11 21 Sudoeste 32 Sudoeste 0 -- -- 74
2019-10-15 12:00:00 10 17 Sudoeste 24 Sudoeste 0 -- -- 80
2019-10-15 11:00:00 8.4 18 Sudoeste 28 Sudoeste 0 -- -- 97
2019-10-15 10:00:00 6.4 17 Sudoeste 24 Sudoeste 0 -- -- 100
2019-10-15 09:00:00 4.9 15 Sudoeste 22 Sudoeste 0 -- -- 100
2019-10-15 08:00:00 3.8 13 Sudoeste 17 Sudoeste 0 -- -- 99
2019-10-15 07:00:00 4.3 12 Sudoeste 17 Sudoeste 0 -- -- 98
2019-10-15 06:00:00 4.8 9 Sudoeste 24 Sudoeste 0 -- -- 90
2019-10-15 05:00:00 5.3 20 Sudoeste 30 Sudoeste 0 -- -- 94
2019-10-15 04:00:00 4.8 11 Sudoeste 24 Sudoeste 0 -- -- 83
2019-10-15 03:00:00 5.7 18 Oeste 30 Oeste 0 -- -- 74
2019-10-15 02:00:00 6.1 21 Sudoeste 30 Oeste 0 -- -- 71
2019-10-15 01:00:00 5.7 18 Sudoeste 32 Oeste 0 -- -- 73
2019-10-15 00:00:00 6.3 19 Oeste 31 Oeste 0 -- -- 70
2019-10-14 23:00:00 6.7 22 Oeste 38 Oeste 0 -- -- 64
2019-10-14 22:00:00 7.2 22 Oeste 30 Oeste 0 -- -- 69
2019-10-14 21:00:00 7.4 15 Oeste 28 Oeste 0 -- -- 73
2019-10-14 20:00:00 8 19 Oeste 42 Oeste 0 -- -- 68
2019-10-14 19:00:00 8.3 28 Oeste 38 Oeste 1.8 -- -- 64
2019-10-14 18:00:00 10.1 21 Oeste 40 Oeste 1 -- -- 69
2019-10-14 17:00:00 7.8 32 Oeste 55 Noroeste 0.4 -- -- 69
2019-10-14 16:00:00 9.4 26 Sudoeste 74 Sudoeste 3.6 -- -- 78
2019-10-14 15:00:00 11.2 36 Sudoeste 49 Sudoeste 0 -- -- 72
2019-10-14 14:00:00 10.6 33 Sudoeste 51 Sudoeste 1.2 -- -- 76
2019-10-14 13:00:00 11.5 38 Sudoeste 55 Sudoeste 0 -- -- 66
2019-10-14 12:00:00 12.6 29 Sudoeste 54 Sudoeste 0 -- -- 61
2019-10-14 11:00:00 10.8 32 Sudoeste 46 Oeste 0.2 -- -- 69
2019-10-14 10:00:00 9.3 19 Sudoeste 29 Sudoeste 0.8 -- -- 95
2019-10-14 09:00:00 9 13 Oeste 46 Oeste 0.4 -- -- 95
2019-10-14 08:00:00 9.5 47 Oeste 67 Oeste 7.2 -- -- 81
2019-10-14 07:00:00 13.7 26 Sudoeste 36 Sudoeste 0 -- -- 62
2019-10-14 06:00:00 12.1 11 Sudoeste 18 Sudoeste 0 -- -- 64
2019-10-14 05:00:00 10.7 11 Sudoeste 15 Sudoeste 0 -- -- 63
2019-10-14 04:00:00 11.2 10 Sudoeste 13 Sudoeste 0 -- -- 60
2019-10-14 03:00:00 12.9 8 Sudoeste 13 Sur 0 -- -- 53
2019-10-14 02:00:00 11.1 9 Sudoeste 10 Sudoeste 0 -- -- 60
2019-10-14 01:00:00 10.9 6 Sudoeste 8 Sudoeste 0 -- -- 61
2019-10-14 00:00:00 11.9 6 Sudoeste 16 Sur 0 -- -- 58
2019-10-13 23:00:00 14.1 15 Sudoeste 20 Sur 0 -- -- 51
2019-10-13 22:00:00 11.9 8 Sur 13 Sur 0 -- -- 58
2019-10-13 21:00:00 13.1 0 Calma 23 Sur 0 -- -- 47
2019-10-13 20:00:00 16.1 18 Sudoeste 36 Sudoeste 0 -- -- 38
2019-10-13 19:00:00 18.6 28 Sudoeste 46 Sudoeste 0 -- -- 29
2019-10-13 18:00:00 19.7 36 Sudoeste 52 Sudoeste 0 -- -- 27
2019-10-13 17:00:00 20.6 34 Sudoeste 50 Sur 0 -- -- 24
2019-10-13 16:00:00 20.9 29 Sudoeste 51 Sudoeste 0 -- -- 25
2019-10-13 15:00:00 20.3 30 Sudoeste 46 Sudoeste 0 -- -- 29
2019-10-13 14:00:00 19.5 33 Sudoeste 49 Sudoeste 0 -- -- 33
2019-10-13 13:00:00 18.6 32 Sudoeste 55 Sudoeste 0 -- -- 35
2019-10-13 12:00:00 16.6 37 Sudoeste 59 Sudoeste 0 -- -- 44
2019-10-13 11:00:00 15.2 37 Sudoeste 53 Sudoeste 0 -- -- 50
2019-10-13 10:00:00 14 38 Sudoeste 59 Sudoeste 0 -- -- 54
2019-10-13 09:00:00 12.2 32 Sudoeste 45 Sudoeste 0 -- -- 62
2019-10-13 08:00:00 12.5 26 Sudoeste 38 Sudoeste 0 -- -- 62
2019-10-13 07:00:00 12.3 21 Sudoeste 33 Sudoeste 0 -- -- 70
2019-10-13 06:00:00 12.7 24 Sudoeste 38 Sudoeste 0 -- -- 67
2019-10-13 05:00:00 13 21 Sudoeste 38 Sudoeste 0 -- -- 69
2019-10-13 04:00:00 11.8 11 Sudoeste 17 Sudoeste 0 -- -- 79
2019-10-13 03:00:00 13.2 13 Sudoeste 24 Sudoeste 0 -- -- 71
2019-10-13 02:00:00 13.8 16 Sudoeste 22 Sudoeste 0 -- -- 66
2019-10-13 01:00:00 14.7 12 Sudoeste 18 Sudoeste 0 -- -- 62
2019-10-13 00:00:00 15.9 11 Sudoeste 27 Sudoeste 0 -- -- 52
2019-10-12 23:00:00 18.8 20 Sudoeste 40 Sudoeste 0 -- -- 30
2019-10-12 22:00:00 20.7 25 Sudoeste 50 Sudoeste 0 -- -- 22
2019-10-12 21:00:00 21.6 27 Sudoeste 53 Sudoeste 0 -- -- 21
2019-10-12 20:00:00 23.2 44 Sudoeste 58 Sudoeste 0 -- -- 15
2019-10-12 19:00:00 24.5 37 Sudoeste 55 Sudoeste 0 -- -- 13
2019-10-12 18:00:00 26.3 36 Sudoeste 67 Sur 0 -- -- 10
2019-10-12 17:00:00 26.3 40 Sudoeste 71 Sudoeste 0 -- -- 10
2019-10-12 16:00:00 26.5 40 Sudoeste 59 Sudoeste 0 -- -- 9
2019-10-12 15:00:00 26.3 40 Sudoeste 66 Sudoeste 0 -- -- 11
2019-10-12 14:00:00 25.7 40 Sudoeste 60 Sudoeste 0 -- -- 11
2019-10-12 13:00:00 24.8 36 Sudoeste 55 Sudoeste 0 -- -- 15
2019-10-12 12:00:00 22.2 23 Sudoeste 38 Sur 0 -- -- 25
2019-10-12 11:00:00 20.4 12 Sur 31 Sur 0 -- -- 34
2019-10-12 10:00:00 17.7 13 Sudoeste 19 Sudoeste 0 -- -- 47
2019-10-12 09:00:00 14.1 11 Sudoeste 17 Sudoeste 0 -- -- 58
2019-10-12 08:00:00 15 14 Sudoeste 22 Sudoeste 0 -- -- 54
2019-10-12 07:00:00 14.1 15 Sudoeste 20 Sudoeste 0 -- -- 55
2019-10-12 06:00:00 13.2 12 Sudoeste 18 Sudoeste 0 -- -- 58
2019-10-12 05:00:00 13.4 11 Sudoeste 13 Sudoeste 0 -- -- 54
2019-10-12 04:00:00 14.9 8 Sudoeste 12 Sur 0 -- -- 50
2019-10-12 03:00:00 15.9 11 Sudoeste 18 Sudoeste 0 -- -- 48
2019-10-12 02:00:00 15.1 9 Sudoeste 15 Sudoeste 0 -- -- 51
2019-10-12 01:00:00 14.2 11 Sudoeste 13 Sudoeste 0 -- -- 54
2019-10-12 00:00:00 15 5 Sur 8 Sudeste 0 -- -- 52
2019-10-11 23:00:00 16.4 5 Sudoeste 11 Sudoeste 0 -- -- 45
2019-10-11 22:00:00 17 8 Sudoeste 17 Sur 0 -- -- 43
2019-10-11 21:00:00 20.1 13 Sur 27 Sur 0 -- -- 34
2019-10-11 20:00:00 21.4 15 Sudoeste 34 Sudoeste 0 -- -- 30
2019-10-11 19:00:00 23.8 25 Sudoeste 42 Sudoeste 0 -- -- 21
2019-10-11 18:00:00 25.6 23 Sudoeste 38 Sudoeste 0 -- -- 16
2019-10-11 17:00:00 26.4 22 Sur 37 Sur 0 -- -- 17
2019-10-11 16:00:00 26.9 23 Sudoeste 35 Sudoeste 0 -- -- 16
2019-10-11 15:00:00 27.1 28 Sudoeste 47 Sudoeste 0 -- -- 15
2019-10-11 14:00:00 26.4 14 Sudoeste 26 Sudoeste 0 -- -- 14
2019-10-11 13:00:00 25.1 8 Sudoeste 16 Sur 0 -- -- 16
2019-10-11 12:00:00 22.8 3 Oeste 11 Nordeste 0 -- -- 18
2019-10-11 11:00:00 16.2 8 Nordeste 15 Nordeste 0 -- -- 30
2019-10-11 10:00:00 11.4 11 Nordeste 16 Nordeste 0 -- -- 43
2019-10-11 09:00:00 8 9 Este 18 Nordeste 0 -- -- 55
2019-10-11 08:00:00 8.1 15 Nordeste 21 Nordeste 0 -- -- 52
2019-10-11 07:00:00 8 16 Nordeste 22 Nordeste 0 -- -- 52
2019-10-11 06:00:00 8.6 16 Nordeste 19 Nordeste 0 -- -- 49
2019-10-11 05:00:00 7.9 13 Nordeste 17 Nordeste 0 -- -- 51
2019-10-11 04:00:00 9.3 6 Nordeste 8 Nordeste 0 -- -- 46
2019-10-11 03:00:00 10.6 4 Nordeste 14 Este 0 -- -- 40
2019-10-11 02:00:00 10.2 13 Nordeste 18 Nordeste 0 -- -- 45
2019-10-11 01:00:00 12.4 9 Nordeste 13 Este 0 -- -- 37
2019-10-11 00:00:00 12.7 12 Este 18 Nordeste 0 -- -- 39
2019-10-10 23:00:00 12.5 13 Este 17 Nordeste 0 -- -- 41
2019-10-10 22:00:00 12.9 9 Nordeste 14 Nordeste 0 -- -- 38
2019-10-10 21:00:00 14.8 -- -- -- -- 0 -- -- 33
2019-10-10 20:00:00 17.4 6 Nordeste 14 Nordeste 0 -- -- 25
2019-10-10 19:00:00 23.3 8 Nordeste 15 Nordeste 0 -- -- 13
2019-10-10 18:00:00 24.3 10 Este 19 Nordeste 0 -- -- 11
2019-10-10 17:00:00 23.4 12 Nordeste 26 Este 0 -- -- 14
2019-10-10 16:00:00 22.7 15 Este 28 Este 0 -- -- 15
2019-10-10 15:00:00 21.1 17 Nordeste 32 Nordeste 0 -- -- 18
2019-10-10 14:00:00 19 23 Nordeste 33 Nordeste 0 -- -- 23
2019-10-10 13:00:00 16.1 22 Nordeste 31 Nordeste 0 -- -- 34
2019-10-10 12:00:00 14.3 21 Nordeste 35 Nordeste 0 -- -- 39
2019-10-10 11:00:00 11.4 20 Nordeste 36 Nordeste 0 -- -- 52
2019-10-10 10:00:00 8.5 21 Nordeste 28 Nordeste 0 -- -- 67
2019-10-10 09:00:00 6.8 23 Nordeste 42 Nordeste 0 -- -- 77
2019-10-10 08:00:00 6.4 22 Nordeste 30 Nordeste 0 -- -- 76
2019-10-10 07:00:00 6.7 21 Nordeste 28 Nordeste 0 -- -- 72
2019-10-10 06:00:00 7.1 20 Nordeste 26 Nordeste 0 -- -- 68
2019-10-10 05:00:00 7.3 15 Nordeste 24 Nordeste 0 -- -- 66
2019-10-10 04:00:00 8 17 Nordeste 28 Nordeste 0 -- -- 62
2019-10-10 03:00:00 8.9 21 Nordeste 31 Nordeste 0 -- -- 56
2019-10-10 02:00:00 9.4 19 Nordeste 23 Nordeste 0 -- -- 53
2019-10-10 01:00:00 10 14 Nordeste 27 Nordeste 0 -- -- 39
2019-10-10 00:00:00 13.8 17 Nordeste -- -- 0 -- -- 24
2019-10-09 23:00:00 9.8 6 Nordeste 9 Nordeste 0 -- -- 33
2019-10-09 22:00:00 11.1 8 Nordeste -- -- 0 -- -- 27
2019-10-09 21:00:00 12.6 8 Nordeste 10 Nordeste 0 -- -- 23
2019-10-09 20:00:00 15.3 9 Nordeste 14 Nordeste 0 -- -- 16
2019-10-09 19:00:00 21.4 10 Norte 18 Nordeste 0 -- -- 3
2019-10-09 18:00:00 22.6 8 Nordeste 18 Norte 0 -- -- 3
2019-10-09 17:00:00 22.5 11 Nordeste 21 Nordeste 0 -- -- 3
2019-10-09 16:00:00 21.6 10 Nordeste 27 Nordeste 0 -- -- 4
2019-10-09 15:00:00 20.6 16 Nordeste 28 Nordeste 0 -- -- 11
2019-10-09 14:00:00 19.3 15 Nordeste 30 Este 0 -- -- 18
2019-10-09 13:00:00 18.1 15 Nordeste 27 Nordeste 0 -- -- 22
2019-10-09 12:00:00 15.9 22 Nordeste 30 Nordeste 0 -- -- 24
2019-10-09 11:00:00 14.3 22 Nordeste 28 Nordeste 0 -- -- 45
2019-10-09 10:00:00 11.2 15 Este 22 Este 0 -- -- 100
2019-10-09 09:00:00 10.1 9 Nordeste 14 Nordeste 0 -- -- 100
2019-10-09 08:00:00 7.9 5 Nordeste 9 Este 0 -- -- 100
2019-10-09 07:00:00 10 3 Este 16 Oeste 0 -- -- 90
2019-10-09 06:00:00 12.8 8 Oeste 14 Oeste 0 -- -- 95
2019-10-09 05:00:00 12.8 10 Oeste 16 Oeste 0 -- -- 96
2019-10-09 04:00:00 12.4 8 Sudoeste 10 Oeste 0 -- -- 97
2019-10-09 03:00:00 13.1 6 Sur 12 Oeste 0 -- -- 79
2019-10-09 02:00:00 13.7 7 Sudoeste 16 Oeste 0 -- -- 76
2019-10-09 01:00:00 16 14 Oeste 19 Oeste 0 -- -- 65
2019-10-09 00:00:00 17 12 Noroeste 20 Noroeste 0 -- -- 58
2019-10-08 23:00:00 17.7 14 Oeste 17 Oeste 0 -- -- 53
2019-10-08 22:00:00 19.1 13 Oeste 20 Oeste 0 -- -- 42
2019-10-08 21:00:00 18.9 6 Sudoeste 12 Sudoeste 0 -- -- 38
2019-10-08 20:00:00 21.9 12 Oeste 28 Oeste 0 -- -- 29
2019-10-08 19:00:00 25 23 Oeste 36 Oeste 0 -- -- 22
2019-10-08 18:00:00 26.3 21 Oeste 35 Oeste 0 -- -- 19
2019-10-08 17:00:00 26.6 23 Oeste 35 Oeste 0 -- -- 15
2019-10-08 16:00:00 26.7 20 Oeste 35 Oeste 0 -- -- 18
2019-10-08 15:00:00 25.5 21 Oeste 30 Oeste 0 -- -- 23
2019-10-08 14:00:00 25.5 13 Sudoeste 28 Oeste 0 -- -- 21
2019-10-08 13:00:00 23.8 14 Oeste 24 Oeste 0 -- -- 21
2019-10-08 12:00:00 22.5 13 Oeste 21 Oeste 0 -- -- 21
2019-10-08 11:00:00 19.2 8 Sudoeste 11 Sudoeste 0 -- -- 25
2019-10-08 10:00:00 14.6 4 Sudoeste 6 Sudoeste 0 -- -- 35
2019-10-08 09:00:00 9.4 3 Sur 4 Sudeste 0 -- -- 48
2019-10-08 08:00:00 8.8 0 Calma 5 Sudeste 0 -- -- 49
2019-10-08 07:00:00 9.4 2 Sur 6 Sur 0 -- -- 44
2019-10-08 06:00:00 10.2 5 Sur 6 Sur 0 -- -- 42
2019-10-08 05:00:00 10.9 2 Sur 4 Sudoeste 0 -- -- 39
2019-10-08 04:00:00 10.9 4 Sur 5 Sudeste -- -- -- 38
2019-10-08 03:00:00 12.4 3 Sur 5 Sur 0 -- -- 33
2019-10-08 02:00:00 14.3 4 Sur 9 Sudeste 0 -- -- 28
2019-10-08 01:00:00 15 5 Sudeste 7 Sudeste 0 -- -- 30
2019-10-08 00:00:00 15.5 2 Sudoeste 8 Sudeste 0 -- -- 29
2019-10-07 23:00:00 15.6 5 Sudeste 8 Sudeste 0 -- -- 27
2019-10-07 22:00:00 18 5 Sudeste 9 Sur 0 -- -- 20
2019-10-07 21:00:00 18.2 3 Sudeste 9 Oeste 0 -- -- 19
2019-10-07 20:00:00 24 3 Sudoeste 5 Oeste 0 -- -- 10
2019-10-07 19:00:00 29.8 3 Sudoeste 8 Noroeste 0 -- -- 2
2019-10-07 18:00:00 29.5 3 Noroeste 15 Noroeste 0 -- -- 2
2019-10-07 17:00:00 29.3 4 Oeste 17 Oeste 0 -- -- --
2019-10-07 16:00:00 28.1 7 Noroeste 16 Oeste 0 -- -- --
2019-10-07 15:00:00 27.1 4 Oeste 9 Sur 0 -- -- --
2019-10-07 14:00:00 24.9 4 Sudoeste 11 Este 0 -- -- 3
2019-10-07 13:00:00 23.1 5 Nordeste 17 Este 0 -- -- 11
2019-10-07 12:00:00 19.9 9 Este 18 Nordeste 0 -- -- 30
2019-10-07 11:00:00 15.2 14 Nordeste 17 Nordeste 0 -- -- 46
2019-10-07 10:00:00 11.4 10 Nordeste 13 Nordeste 0 -- -- 62
2019-10-07 09:00:00 8 8 Nordeste 17 Nordeste 0 -- -- 69
2019-10-07 08:00:00 7.1 11 Nordeste 12 Nordeste 0 -- -- 65
2019-10-07 07:00:00 8.9 5 Nordeste 9 Nordeste 0 -- -- 54
2019-10-07 06:00:00 9 3 Sudeste 8 Sudeste 0 -- -- 51
2019-10-07 05:00:00 8.4 3 Este 7 Sudoeste 0 -- -- 53
2019-10-07 04:00:00 8.8 5 Sudeste 9 Nordeste 0 -- -- 52
2019-10-07 03:00:00 9.2 0 Calma 6 Nordeste 0 -- -- 48
2019-10-07 02:00:00 10.3 4 Sudoeste 9 Sudeste 0 -- -- 44
2019-10-07 01:00:00 9.6 3 Sudeste 5 Nordeste 0 -- -- 43
2019-10-07 00:00:00 13.7 5 Oeste 9 Oeste 0 -- -- 32
2019-10-06 23:00:00 14.4 6 Sudoeste 12 Sudoeste 0 -- -- 31
2019-10-06 22:00:00 14.7 7 Sudoeste 13 Oeste 0 -- -- 29
2019-10-06 21:00:00 17.7 9 Oeste 17 Noroeste 0 -- -- 22
2019-10-06 20:00:00 19.7 9 Noroeste 23 Oeste 0 -- -- 17
2019-10-06 19:00:00 24 17 Oeste 26 Oeste 0 -- -- 13
2019-10-06 18:00:00 24.5 14 Oeste 27 Oeste 0 -- -- 10
2019-10-06 17:00:00 25.2 11 Oeste 20 Oeste 0 -- -- 12
2019-10-06 16:00:00 24.3 5 Este 20 Oeste 0 -- -- 16
2019-10-06 15:00:00 23.2 5 Oeste 17 Nordeste 0 -- -- 19
2019-10-06 14:00:00 21.8 8 Norte 28 Nordeste 0 -- -- 26
2019-10-06 13:00:00 19.8 11 Nordeste 24 Nordeste 0 -- -- 32
2019-10-06 12:00:00 17.1 13 Nordeste 19 Nordeste 0 -- -- 59
2019-10-06 11:00:00 14.6 5 Norte 10 Norte 0 -- -- 76
2019-10-06 10:00:00 10.6 0 Calma 4 Este 0 -- -- 100
2019-10-06 09:00:00 6.4 0 Calma 8 Sudeste 0 -- -- 100
2019-10-06 08:00:00 6.1 7 Sudeste 8 Sudeste 0 -- -- 100
2019-10-06 07:00:00 7 4 Sudeste 7 Sudeste 0 -- -- 99
2019-10-06 06:00:00 6.7 0 Calma 7 Sur 0 -- -- 98
2019-10-06 05:00:00 7.4 4 Sudoeste 8 Sudoeste 0 -- -- 96
2019-10-06 04:00:00 7.9 4 Sur 10 Sudoeste 0 -- -- 77
2019-10-06 03:00:00 9.3 9 Sudoeste 12 Sudoeste 0 -- -- 72
2019-10-06 02:00:00 9.7 9 Sudoeste 13 Sudoeste 0 -- -- 67
2019-10-06 01:00:00 10.4 7 Sudoeste 16 Sudoeste 0 -- -- 62
2019-10-06 00:00:00 11.4 6 Sudoeste 19 Oeste 0 -- -- 55
2019-10-05 23:00:00 13.3 15 Oeste 20 Oeste 0 -- -- 49
2019-10-05 22:00:00 14 10 Oeste 18 Oeste 0 -- -- 43
2019-10-05 21:00:00 15.8 16 Oeste 26 Oeste 0 -- -- 34
2019-10-05 20:00:00 17.8 19 Oeste 24 Oeste 0 -- -- 25
2019-10-05 19:00:00 21.8 21 Oeste 28 Oeste 0 -- -- 11
2019-10-05 18:00:00 22.7 15 Oeste 26 Oeste 0 -- -- 18
2019-10-05 17:00:00 22.6 13 Oeste 28 Oeste 0 -- -- 24
2019-10-05 16:00:00 22 16 Sudoeste 29 Sudoeste 0 -- -- 31
2019-10-05 15:00:00 22.2 12 Sudoeste 25 Sudoeste 0 -- -- 31
2019-10-05 14:00:00 21.9 9 Sudoeste 14 Sudoeste 0 -- -- 33
2019-10-05 13:00:00 20.7 4 Nordeste 13 Nordeste 0 -- -- 37
2019-10-05 12:00:00 17.8 7 Este 13 Este 0 -- -- 69
2019-10-05 11:00:00 14 10 Nordeste 18 Este 0 -- -- 84
2019-10-05 10:00:00 11.2 11 Este 14 Este 0 -- -- 100
2019-10-05 09:00:00 5 0 Calma 5 Sudeste 0 -- -- 100
2019-10-05 08:00:00 6.8 3 Este 9 Nordeste 0 -- -- 100
2019-10-05 07:00:00 7 4 Nordeste 6 Sudeste 0 -- -- 100
2019-10-05 06:00:00 7.3 3 Sudoeste 6 Sudoeste 0 -- -- 99
2019-10-05 05:00:00 7.4 4 Sur 5 Sur 0 -- -- 100
2019-10-05 04:00:00 8.4 4 Sudoeste 5 Sur 0 -- -- 96
2019-10-05 03:00:00 9.2 5 Sur 6 Sur 0 -- -- 86
2019-10-05 02:00:00 9.9 4 Sur 6 Sudeste 0 -- -- 72
2019-10-05 01:00:00 10.3 3 Sur 6 Sur 0 -- -- 68
2019-10-05 00:00:00 10.5 4 Noroeste 6 Oeste 0 -- -- 63
2019-10-04 23:00:00 12 3 Oeste 5 Noroeste 0 -- -- 54
2019-10-04 22:00:00 12.8 0 Calma 12 Oeste 0 -- -- 54
2019-10-04 21:00:00 17.1 9 Oeste 14 Oeste 0 -- -- 40
2019-10-04 20:00:00 19.7 11 Oeste 25 Oeste 0 -- -- 32
2019-10-04 19:00:00 22.4 18 Oeste 32 Oeste 0 -- -- 26
2019-10-04 18:00:00 23 15 Oeste 30 Oeste 0 -- -- 26
2019-10-04 17:00:00 23.3 13 Sudoeste 27 Oeste 0 -- -- 25
2019-10-04 16:00:00 22.6 15 Sudoeste 25 Sudoeste 0 -- -- 26
2019-10-04 15:00:00 22.3 13 Sudoeste 26 Oeste 0 -- -- 31
2019-10-04 14:00:00 19.7 14 Oeste 26 Oeste 0 -- -- 64
2019-10-04 13:00:00 19.3 14 Oeste 28 Oeste 0 -- -- 69
2019-10-04 12:00:00 17.5 11 Oeste 18 Oeste 0 -- -- 77
2019-10-04 11:00:00 15.3 10 Oeste 17 Sudoeste 0 -- -- 91
2019-10-04 10:00:00 14 10 Oeste 18 Oeste 0 -- -- 97
2019-10-04 09:00:00 12.1 6 Sudoeste 10 Sudoeste 0 -- -- 98
2019-10-04 08:00:00 10.4 8 Sudoeste 10 Sudoeste 0 -- -- 100
2019-10-04 07:00:00 9.6 5 Sudoeste 6 Sudoeste 0 -- -- 99
2019-10-04 06:00:00 9.6 5 Sur 9 Sudoeste 0 -- -- 99
2019-10-04 05:00:00 10 6 Sudoeste 10 Sudoeste 0 -- -- 97
2019-10-04 04:00:00 10.8 7 Sudoeste 9 Sur 0 -- -- 90
2019-10-04 03:00:00 11.1 7 Sudoeste 9 Sur 0 -- -- 77
2019-10-04 02:00:00 12 6 Sudoeste 9 Sudoeste 0 -- -- 70
2019-10-04 01:00:00 12.7 7 Sur 9 Sudoeste 0 -- -- 65
2019-10-04 00:00:00 13.6 6 Sudoeste 10 Oeste 0 -- -- 58
2019-10-03 23:00:00 13.9 5 Oeste 16 Oeste 0 -- -- 48
2019-10-03 22:00:00 17.1 11 Oeste 19 Oeste 0 -- -- 31
2019-10-03 21:00:00 17.2 7 Sudoeste 25 Oeste 0 -- -- 29
2019-10-03 20:00:00 20.7 17 Oeste 27 Oeste 0 -- -- 18
2019-10-03 19:00:00 23.6 18 Oeste 24 Oeste 0 -- -- 14
2019-10-03 18:00:00 25.2 13 Oeste 32 Oeste 0 -- -- 3
2019-10-03 17:00:00 24.9 17 Oeste 28 Oeste 0 -- -- 5
2019-10-03 16:00:00 23.7 15 Oeste 36 Oeste 0 -- -- 11
2019-10-03 15:00:00 22.7 17 Oeste 31 Oeste 0 -- -- 8
2019-10-03 14:00:00 21 18 Oeste 34 Oeste 0 -- -- 19
2019-10-03 13:00:00 19.6 15 Oeste 24 Oeste 0 -- -- 26
2019-10-03 12:00:00 18.4 7 Sudoeste 12 Oeste 0 -- -- 30
2019-10-03 11:00:00 15.5 6 Este 12 Este 0 -- -- 38
2019-10-03 10:00:00 10.7 9 Este 11 Este 0 -- -- 58
2019-10-03 09:00:00 4.5 0 Calma 3 Este 0 -- -- 72
2019-10-03 08:00:00 3.8 3 Este 4 Este 0 -- -- 69
2019-10-03 07:00:00 5.4 4 Este 6 Nordeste 0 -- -- 62
2019-10-03 06:00:00 7.5 4 Norte 6 Norte 0 -- -- 53
2019-10-03 05:00:00 6.2 2 Norte 8 Este 0 -- -- 58
2019-10-03 04:00:00 8.5 6 Este 15 Nordeste 0 -- -- 50
2019-10-03 03:00:00 7.4 3 Sur 4 Sur 0 -- -- 54
2019-10-03 02:00:00 8.1 3 Sudeste 13 Oeste 0 -- -- 51
2019-10-03 01:00:00 8.4 3 Sudoeste 9 Sudeste 0 -- -- 51
2019-10-03 00:00:00 9 0 Calma 0 Calma 0 -- -- 47
2019-10-02 23:00:00 9.5 0 Calma 2 Oeste 0 -- -- 42
2019-10-02 22:00:00 12.1 2 Este 5 Sudeste 0 -- -- 35
2019-10-02 21:00:00 14.6 3 Sur 10 Oeste 0 -- -- 27
2019-10-02 20:00:00 18.7 4 Sudeste 9 Este 0 -- -- 18
2019-10-02 19:00:00 22.4 3 Oeste 13 Nordeste 0 -- -- 11
2019-10-02 18:00:00 22.4 5 Noroeste 21 Este 0 -- -- 11
2019-10-02 17:00:00 22.8 7 Sudeste 22 Este 0 -- -- 11
2019-10-02 16:00:00 21.2 8 Nordeste 23 Nordeste 0 -- -- 14
2019-10-02 15:00:00 19.7 11 Norte 23 Nordeste 0 -- -- 17
2019-10-02 14:00:00 18.9 11 Nordeste 20 Norte 0 -- -- 21
2019-10-02 13:00:00 17.9 11 Este 22 Nordeste 0 -- -- 24
2019-10-02 12:00:00 15.4 13 Norte 21 Nordeste 0 -- -- 34
2019-10-02 11:00:00 13.3 4 Sudoeste 13 Oeste 0 -- -- 69
2019-10-02 10:00:00 10 7 Sudoeste 9 Sur 0 -- -- 88
2019-10-02 09:00:00 5.6 6 Sudeste 8 Sudeste 0 -- -- 99
2019-10-02 08:00:00 4.3 0 Calma 7 Oeste 0 -- -- 88
2019-10-02 07:00:00 5.7 3 Sur 13 Sudoeste 0 -- -- 66
2019-10-02 06:00:00 7.8 6 Oeste 20 Oeste 0 -- -- 71
2019-10-02 05:00:00 9.6 11 Oeste 29 Noroeste 0 -- -- 63
2019-10-02 04:00:00 10.4 22 Oeste 33 Oeste 0 -- -- 60
2019-10-02 03:00:00 10.9 21 Oeste 37 Oeste 0 -- -- 57
2019-10-02 02:00:00 11.7 23 Oeste 39 Noroeste 0 -- -- 55
2019-10-02 01:00:00 12.6 20 Oeste 26 Oeste 0 -- -- 53
2019-10-02 00:00:00 13.2 15 Oeste 27 Oeste 0 -- -- 54
2019-10-01 23:00:00 14.9 20 Oeste 34 Oeste 0 -- -- 47
2019-10-01 22:00:00 16.1 20 Oeste 32 Oeste 0 -- -- 39
2019-10-01 21:00:00 15.8 10 Sudoeste 27 Oeste 0 -- -- 37
2019-10-01 20:00:00 19.1 22 Oeste 35 Sudoeste 0 -- -- 26
2019-10-01 19:00:00 21.5 24 Oeste 42 Oeste 0 -- -- 20
2019-10-01 18:00:00 22.1 29 Oeste 45 Oeste 0 -- -- 21
2019-10-01 17:00:00 22.2 25 Oeste 48 Oeste 0 -- -- 21
2019-10-01 16:00:00 21.3 20 Oeste 45 Oeste 0 -- -- 27
2019-10-01 15:00:00 20.4 28 Oeste 45 Oeste 0 -- -- 28
2019-10-01 14:00:00 18.5 21 Oeste 37 Oeste 0 -- -- 44
2019-10-01 13:00:00 16.3 17 Oeste 30 Oeste 0 -- -- 59
2019-10-01 12:00:00 16 25 Oeste 36 Oeste 0 -- -- 58
2019-10-01 11:00:00 16.5 23 Oeste 34 Oeste 0 -- -- 54
2019-10-01 10:00:00 14.9 15 Sudoeste 23 Sudoeste 0 -- -- 65
2019-10-01 09:00:00 13.4 14 Oeste 27 Oeste 0 -- -- 72
2019-10-01 08:00:00 14.5 11 Oeste 28 Oeste 0 -- -- 73
2019-10-01 07:00:00 14.5 17 Oeste 24 Oeste 0 -- -- 77
2019-10-01 06:00:00 14.7 14 Oeste 26 Oeste 0 -- -- 84
2019-10-01 05:00:00 14.4 13 Oeste 23 Oeste 0 -- -- 86
2019-10-01 04:00:00 13.5 11 Sudoeste 16 Sudoeste 0 -- -- 70
2019-10-01 03:00:00 13.5 5 Sur 8 Sudoeste 0 -- -- 65
2019-10-01 02:00:00 14.5 7 Sudoeste 10 Oeste 0 -- -- 57
2019-10-01 01:00:00 15.5 5 Oeste 14 Oeste 0 -- -- 55
2019-10-01 00:00:00 17 13 Oeste 14 Oeste 0 -- -- 47
2019-09-30 23:00:00 16.9 6 Oeste 14 Oeste 0 -- -- 42
2019-09-30 22:00:00 17.4 4 Sur 6 Sudeste 0 -- -- 33
2019-09-30 21:00:00 18.8 2 Norte 12 Oeste 0 -- -- 27
2019-09-30 20:00:00 24.1 12 Oeste 28 Oeste 0 -- -- 15
2019-09-30 19:00:00 26.5 18 Oeste 30 Oeste 0 -- -- 10
2019-09-30 18:00:00 27.2 14 Oeste 35 Oeste 0 -- -- 14
2019-09-30 17:00:00 27.2 16 Oeste 30 Oeste 0 -- -- 16
2019-09-30 16:00:00 27.4 12 Sudoeste 30 Oeste 0 -- -- 16
2019-09-30 15:00:00 26.7 10 Sudoeste 24 Oeste 0 -- -- 15
2019-09-30 14:00:00 25.7 11 Sudoeste 21 Oeste 0 -- -- 18
2019-09-30 13:00:00 24 5 Sudoeste 15 Sudoeste 0 -- -- 33
2019-09-30 12:00:00 22.9 4 Sudoeste 8 Sur 0 -- -- 60
2019-09-30 11:00:00 19.6 2 Oeste 8 Oeste 0 -- -- 75
2019-09-30 10:00:00 14.8 0 Calma 5 Sur 0 -- -- 97
2019-09-30 09:00:00 10.7 4 Sur 6 Sudeste 0 -- -- 100
2019-09-30 08:00:00 10.5 5 Sudeste 6 Sudeste 0 -- -- 100
2019-09-30 07:00:00 10.8 4 Sur 10 Sudeste 0 -- -- 99
2019-09-30 06:00:00 11.1 6 Sudeste 9 Sudeste 0 -- -- 99
2019-09-30 05:00:00 11.3 4 Sudoeste 8 Sur 0 -- -- 98
2019-09-30 04:00:00 12 4 Sur 9 Sur 0 -- -- 92
2019-09-30 03:00:00 12.2 8 Sudeste 12 Sudeste 0 -- -- 85
2019-09-30 02:00:00 13.1 3 Noroeste 13 Oeste 0 -- -- 72
2019-09-30 01:00:00 14.3 9 Oeste 17 Oeste 0 -- -- 67
2019-09-30 00:00:00 15 6 Oeste 8 Oeste 0 -- -- 55
2019-09-29 23:00:00 15.4 2 Oeste 11 Noroeste 0 -- -- 45
2019-09-29 22:00:00 17.7 5 Noroeste 14 Oeste 0 -- -- 29
2019-09-29 21:00:00 20.3 13 Oeste 20 Oeste 0 -- -- 19
2019-09-29 20:00:00 22.8 16 Oeste 30 Oeste 0 -- -- 14
2019-09-29 19:00:00 25.4 23 Oeste 31 Oeste 0 -- -- 9
2019-09-29 18:00:00 26.1 22 Oeste 35 Oeste 0 -- -- 8
2019-09-29 17:00:00 25.9 23 Oeste 39 Oeste 0 -- -- 7
2019-09-29 16:00:00 25.7 22 Sudoeste 36 Oeste 0 -- -- 9
2019-09-29 15:00:00 25.3 17 Oeste 31 Oeste 0 -- -- 11
2019-09-29 14:00:00 24.1 19 Oeste 30 Oeste 0 -- -- 13
2019-09-29 13:00:00 22.6 19 Oeste 29 Oeste 0 -- -- 9
2019-09-29 12:00:00 20.7 14 Oeste 23 Oeste 0 -- -- 16
2019-09-29 11:00:00 18.4 11 Sudoeste 18 Oeste 0 -- -- 32
2019-09-29 10:00:00 13.5 5 Sudoeste 8 Sudoeste 0 -- -- 57
2019-09-29 09:00:00 8.3 2 Sudoeste 7 Sur 0 -- -- 64
2019-09-29 08:00:00 8.1 5 Sur 7 Sur 0 -- -- 58
2019-09-29 07:00:00 8.1 4 Sur 6 Sur 0 -- -- 53
2019-09-29 06:00:00 7.8 4 Sur 8 Sur 0 -- -- 51
2019-09-29 05:00:00 9.3 2 Sudoeste 9 Sur 0 -- -- 45
2019-09-29 04:00:00 9.1 6 Sur 8 Sur 0 -- -- 43
2019-09-29 03:00:00 10.8 4 Sur 10 Sur 0 -- -- 36
2019-09-29 02:00:00 11.5 5 Sur 6 Sur 0 -- -- 34
2019-09-29 01:00:00 11.7 4 Sur 6 Sur 0 -- -- 34
2019-09-29 00:00:00 12.8 3 Sudoeste 6 Sur 0 -- -- 32
2019-09-28 23:00:00 14 5 Sur 6 Sur 0 -- -- 26
2019-09-28 22:00:00 13.8 0 Calma 8 Noroeste 0 -- -- 27
2019-09-28 21:00:00 18.1 5 Noroeste 11 Oeste 0 -- -- 16
2019-09-28 20:00:00 23.6 10 Oeste 18 Oeste 0 -- -- 8
2019-09-28 19:00:00 26.2 12 Oeste 21 Sudoeste 0 -- -- 5
2019-09-28 18:00:00 27.3 11 Oeste 18 Sudoeste 0 -- -- 4
2019-09-28 17:00:00 27.3 9 Oeste 19 Sudoeste 0 -- -- --
2019-09-28 16:00:00 26.1 10 Sudoeste 17 Sudoeste 0 -- -- 3
2019-09-28 15:00:00 25.2 3 Oeste 15 Este 0 -- -- 14
2019-09-28 14:00:00 22.6 6 Nordeste 13 Sudeste 0 -- -- 28
2019-09-28 13:00:00 20.2 9 Nordeste 20 Este 0 -- -- 54
2019-09-28 12:00:00 17.6 13 Nordeste 21 Este 0 -- -- 68
2019-09-28 11:00:00 14.6 12 Nordeste 19 Este 0 -- -- 84
2019-09-28 10:00:00 11 11 Nordeste 14 Nordeste 0 -- -- 100
2019-09-28 09:00:00 6.9 4 Nordeste 5 Nordeste 0 -- -- 100
2019-09-28 08:00:00 5.2 3 Nordeste 3 Nordeste 0 -- -- 100
2019-09-28 07:00:00 5.1 0 Calma 6 Sudeste 0 -- -- 100
2019-09-28 06:00:00 8.1 4 Sudeste 6 Sudeste 0 -- -- 100
2019-09-28 05:00:00 8 4 Sudeste 6 Sur 0 -- -- 100
2019-09-28 04:00:00 8.4 4 Sudeste 9 Sudeste 0 -- -- 99
2019-09-28 03:00:00 8.1 4 Sur 8 Sudeste 0 -- -- 97
2019-09-28 02:00:00 8.9 3 Sudeste 11 Sudeste 0 -- -- 98
2019-09-28 01:00:00 10.6 0 Calma 6 Sur 0 -- -- 96
2019-09-28 00:00:00 11.3 4 Sudoeste 12 Oeste 0 -- -- 76
2019-09-27 23:00:00 13.3 9 Oeste 13 Oeste 0 -- -- 65
2019-09-27 22:00:00 14.8 9 Oeste 14 Noroeste 0 -- -- 57
2019-09-27 21:00:00 16.5 9 Noroeste 24 Noroeste 0 -- -- 50
2019-09-27 20:00:00 19.5 14 Noroeste 31 Oeste 0 -- -- 39
2019-09-27 19:00:00 22.2 18 Noroeste 38 Oeste 0 -- -- 27
2019-09-27 18:00:00 22.4 21 Oeste 36 Oeste 0 -- -- 26
2019-09-27 17:00:00 23 23 Oeste 37 Oeste 0 -- -- 24
2019-09-27 16:00:00 23.7 17 Oeste 35 Oeste 0 -- -- 21
2019-09-27 15:00:00 23.2 18 Oeste 33 Noroeste 0 -- -- 22
2019-09-27 14:00:00 22 15 Oeste 28 Oeste 0 -- -- 27
2019-09-27 13:00:00 21 16 Oeste 27 Oeste 0 -- -- 28
2019-09-27 12:00:00 19 11 Oeste 22 Oeste 0 -- -- 40
2019-09-27 11:00:00 15.9 13 Oeste 18 Oeste 0 -- -- 55
2019-09-27 10:00:00 11.8 9 Sudoeste 11 Sudoeste 0 -- -- 79
2019-09-27 09:00:00 7.8 5 Sudoeste 11 Sudoeste 0 -- -- 97
2019-09-27 08:00:00 6.5 7 Sudoeste 10 Sudoeste 0 -- -- 96
2019-09-27 07:00:00 6.9 7 Sudoeste 9 Sudoeste 0 -- -- 99
2019-09-27 06:00:00 7 4 Sur 8 Sudoeste 0 -- -- 91
2019-09-27 05:00:00 8.4 7 Sudoeste 10 Sudoeste 0 -- -- 77
2019-09-27 04:00:00 9.4 4 Sur 9 Oeste 0 -- -- 72
2019-09-27 03:00:00 10.3 3 Oeste 14 Oeste 0 -- -- 70
2019-09-27 02:00:00 12.3 12 Oeste 15 Noroeste 0 -- -- 59
2019-09-27 01:00:00 13.6 12 Oeste 13 Oeste 0 -- -- 48
2019-09-27 00:00:00 13.1 6 Sudoeste 8 Oeste 0 -- -- 41
2019-09-26 23:00:00 14.6 7 Noroeste 11 Oeste 0 -- -- 31
2019-09-26 22:00:00 15.2 8 Noroeste 17 Oeste 0 -- -- 25
2019-09-26 21:00:00 17.3 13 Oeste 17 Oeste 0 -- -- 19
2019-09-26 20:00:00 21.4 12 Oeste 25 Oeste 0 -- -- 10
2019-09-26 19:00:00 24.1 20 Oeste 29 Oeste 0 -- -- --
2019-09-26 18:00:00 24.8 19 Oeste 32 Sudoeste 0 -- -- 3
2019-09-26 17:00:00 24.7 18 Oeste 30 Oeste 0 -- -- 4
2019-09-26 16:00:00 24.3 18 Oeste 30 Oeste 0 -- -- 4
2019-09-26 15:00:00 23.1 17 Oeste 30 Oeste 0 -- -- 19
2019-09-26 14:00:00 22.1 18 Oeste 28 Sudoeste 0 -- -- 18
2019-09-26 13:00:00 20.4 13 Oeste 22 Oeste 0 -- -- 28
2019-09-26 12:00:00 17.7 13 Sudoeste 21 Sudoeste 0 -- -- 64
2019-09-26 11:00:00 14.8 12 Sudoeste 18 Sudoeste 0 -- -- 78
2019-09-26 10:00:00 11.8 9 Sudoeste 13 Sudoeste 0 -- -- 97
2019-09-26 09:00:00 8.1 6 Sudoeste 8 Sudoeste 0 -- -- 100
2019-09-26 08:00:00 7.6 4 Sur 11 Sudoeste 0 -- -- 100
2019-09-26 07:00:00 8.1 8 Sudoeste 10 Sudoeste 0 -- -- 99
2019-09-26 06:00:00 8.4 7 Sudoeste 10 Sudoeste 0 -- -- 98
2019-09-26 05:00:00 9 3 Sur 8 Sudoeste 0 -- -- 90
2019-09-26 04:00:00 10.1 5 Sudoeste 12 Sudoeste 0 -- -- 75
2019-09-26 03:00:00 11.1 9 Oeste 15 Oeste 0 -- -- 73
2019-09-26 02:00:00 10.5 4 Sudoeste 9 Sudoeste 0 -- -- 71
2019-09-26 01:00:00 11.8 5 Sudoeste 13 Oeste 0 -- -- 66
2019-09-26 00:00:00 11.1 2 Oeste 14 Sudoeste 0 -- -- 62
2019-09-25 23:00:00 12.9 8 Sudoeste 16 Oeste 0 -- -- 56
2019-09-25 22:00:00 13.9 5 Oeste 11 Oeste 0 -- -- 51
2019-09-25 21:00:00 16.1 8 Oeste 14 Oeste 0 -- -- 40
2019-09-25 20:00:00 18.6 11 Oeste 24 Oeste 0 -- -- 32
2019-09-25 19:00:00 20.1 19 Oeste 30 Oeste 0 -- -- 27
2019-09-25 18:00:00 21.2 18 Oeste 32 Oeste 0 -- -- 24
2019-09-25 17:00:00 21.5 10 Oeste 29 Oeste 0 -- -- 23
2019-09-25 16:00:00 21.4 12 Oeste 24 Oeste 0 -- -- 24
2019-09-25 15:00:00 20.5 8 Oeste 22 Oeste 0 -- -- 24
2019-09-25 14:00:00 18.8 10 Sudoeste 19 Sur 0 -- -- 30
2019-09-25 13:00:00 17.8 5 Sur 12 Sudoeste 0 -- -- 31
2019-09-25 12:00:00 16.7 3 Sudoeste 15 Noroeste 0 -- -- 43
2019-09-25 11:00:00 13.3 10 Noroeste 21 Oeste 0 -- -- 61
2019-09-25 10:00:00 11.1 13 Oeste 18 Oeste 0 -- -- 74
2019-09-25 09:00:00 7.5 6 Sur 8 Sudoeste 0 -- -- 99
2019-09-25 08:00:00 6.9 4 Sur 13 Oeste 0 -- -- 93
2019-09-25 07:00:00 7.5 4 Sudoeste 22 Oeste 0 -- -- 78
2019-09-25 06:00:00 8.6 10 Oeste 18 Oeste 0 -- -- 76
2019-09-25 05:00:00 9 13 Oeste 20 Oeste 0 -- -- 78
2019-09-25 04:00:00 9.4 8 Sudoeste 17 Oeste 0 -- -- 75
2019-09-25 03:00:00 10.6 9 Sudoeste 14 Oeste 0 -- -- 78
2019-09-25 02:00:00 9.8 3 Sudoeste 19 Oeste 0 -- -- 72
2019-09-25 01:00:00 11.8 14 Oeste 21 Oeste 0 -- -- 63
2019-09-25 00:00:00 12.2 14 Oeste 26 Oeste 0 -- -- 58
2019-09-24 23:00:00 14.1 19 Oeste 36 Oeste 0 -- -- 50
2019-09-24 22:00:00 15.3 21 Oeste 33 Oeste 0 -- -- 47
2019-09-24 21:00:00 17 18 Oeste 35 Oeste 0 -- -- 43
2019-09-24 20:00:00 18.5 27 Oeste 44 Oeste 0 -- -- 37
2019-09-24 19:00:00 20.4 37 Oeste 48 Oeste 0 -- -- 35
2019-09-24 18:00:00 20.8 32 Oeste 44 Oeste 0 -- -- 39
2019-09-24 17:00:00 21.9 30 Oeste 48 Sudoeste 0 -- -- 37
2019-09-24 16:00:00 20.6 25 Oeste 40 Oeste 0 -- -- 63
2019-09-24 15:00:00 18.8 24 Oeste 39 Oeste 0 -- -- 73
2019-09-24 14:00:00 19 24 Sudoeste 47 Sudoeste 0 -- -- 73
2019-09-24 13:00:00 17.7 22 Sudoeste 37 Sudoeste 0 -- -- 76
2019-09-24 12:00:00 17.9 28 Sudoeste 46 Sudoeste 0 -- -- 71
2019-09-24 11:00:00 15 22 Sudoeste 32 Sudoeste 0 -- -- 81
2019-09-24 10:00:00 13.1 16 Sudoeste 22 Sudoeste 0 -- -- 89
2019-09-24 09:00:00 11.9 10 Sudoeste 22 Sudoeste 0 -- -- 94
2019-09-24 08:00:00 10.6 10 Sudoeste 18 Sudoeste 0 -- -- 99
2019-09-24 07:00:00 9.4 9 Sudoeste 17 Sudoeste 0 -- -- 99
2019-09-24 06:00:00 9.9 10 Sudoeste 19 Sudoeste 0 -- -- 98
2019-09-24 05:00:00 10.4 14 Sudoeste 18 Sudoeste 0 -- -- 98
2019-09-24 04:00:00 10.7 9 Sudoeste 15 Sudoeste 0 -- -- 80
2019-09-24 03:00:00 11.5 12 Sudoeste 17 Sudoeste 0 -- -- 68
2019-09-24 02:00:00 11.7 9 Sudoeste 13 Sudoeste 0 -- -- 66
2019-09-24 01:00:00 12.7 10 Sudoeste 16 Sudoeste 0 -- -- 58
2019-09-24 00:00:00 12.8 11 Sudoeste 18 Sudoeste 0 -- -- 55
2019-09-23 23:00:00 14.8 10 Sudoeste 21 Sudoeste 0 -- -- 48
2019-09-23 22:00:00 16.8 19 Oeste 24 Oeste 0 -- -- 41
2019-09-23 21:00:00 17.3 15 Oeste 20 Oeste 0 -- -- 38
2019-09-23 20:00:00 19.8 16 Oeste 28 Sudoeste 0 -- -- 27
2019-09-23 19:00:00 21.8 18 Oeste 29 Oeste 0 -- -- 22
2019-09-23 18:00:00 22 18 Oeste 28 Oeste 0 -- -- 21
2019-09-23 17:00:00 20.6 18 Oeste 41 Sudoeste 0 -- -- 23
2019-09-23 16:00:00 21.2 19 Sudoeste 32 Oeste 0 -- -- 22
2019-09-23 15:00:00 20 19 Sudoeste 28 Sudoeste 0 -- -- 24
2019-09-23 14:00:00 18.7 16 Sudoeste 28 Sudoeste 0 -- -- 31
2019-09-23 13:00:00 17.4 15 Sudoeste 24 Oeste 0 -- -- 58
2019-09-23 12:00:00 16 12 Sudoeste 17 Sudoeste 0 -- -- 65
2019-09-23 11:00:00 12.8 11 Sudoeste 17 Sur 0 -- -- 84
2019-09-23 10:00:00 10.3 12 Sudoeste 15 Sudoeste 0 -- -- 99
2019-09-23 09:00:00 7.7 5 Sur 8 Sur 0 -- -- 100
2019-09-23 08:00:00 6.7 3 Sur 7 Sudeste 0 -- -- 100
2019-09-23 07:00:00 6.6 3 Sur 9 Sudeste 0 -- -- 99
2019-09-23 06:00:00 6.6 2 Sur 8 Sudoeste 0 -- -- 99
2019-09-23 05:00:00 7.2 5 Sur 7 Sudoeste 0 -- -- 98
2019-09-23 04:00:00 8 4 Sur 11 Sur 0 -- -- 84
2019-09-23 03:00:00 8.7 4 Sur 11 Sudoeste 0 -- -- 83
2019-09-23 02:00:00 10 2 Sudoeste 10 Oeste 0 -- -- 71
2019-09-23 01:00:00 9.6 7 Sudoeste 15 Oeste 0 -- -- 70
2019-09-23 00:00:00 10.6 13 Oeste 17 Oeste 0 -- -- 61
2019-09-22 23:00:00 10.6 8 Sudoeste 15 Oeste 0 -- -- 62
2019-09-22 22:00:00 12.5 9 Oeste 15 Oeste 0 -- -- 50
2019-09-22 21:00:00 14.1 12 Oeste 19 Oeste 0 -- -- 41
2019-09-22 20:00:00 15.9 12 Oeste 32 Sudoeste 0 -- -- 32
2019-09-22 19:00:00 17.3 18 Oeste 25 Oeste 0 -- -- 25
2019-09-22 18:00:00 17.4 20 Oeste 28 Noroeste 0 -- -- 26
2019-09-22 17:00:00 17.9 15 Noroeste 44 Noroeste 0 -- -- 32
2019-09-22 16:00:00 18.8 19 Oeste 41 Oeste 0 -- -- 27
2019-09-22 15:00:00 18 21 Oeste 37 Oeste 0 -- -- 32
2019-09-22 14:00:00 16.2 21 Oeste 38 Oeste 0 -- -- 54
2019-09-22 13:00:00 15.6 18 Oeste 36 Oeste 0 -- -- 60
2019-09-22 12:00:00 14.3 16 Sudoeste 24 Sudoeste 0 -- -- 74
2019-09-22 11:00:00 13.2 17 Sudoeste 23 Sudoeste 0 -- -- 78
2019-09-22 10:00:00 12.2 15 Sudoeste 29 Sudoeste 0 -- -- 93
2019-09-22 09:00:00 10.8 15 Sudoeste 22 Sudoeste 0 -- -- 97
2019-09-22 08:00:00 10.4 17 Sudoeste 22 Sudoeste 0 -- -- 98
2019-09-22 07:00:00 10 13 Sudoeste 17 Sudoeste 0 -- -- 98
2019-09-22 06:00:00 8.6 10 Sudoeste 19 Sudoeste 0 -- -- 99
2019-09-22 05:00:00 9.5 14 Sudoeste 24 Sudoeste 0 -- -- 98
2019-09-22 04:00:00 10.4 14 Sudoeste 24 Sudoeste 0 -- -- 95
2019-09-22 03:00:00 11.2 17 Sudoeste 30 Sudoeste 0 -- -- 95
2019-09-22 02:00:00 11.6 19 Oeste 33 Oeste 0 -- -- 94
2019-09-22 01:00:00 11.7 21 Oeste 48 Noroeste 0.6 -- -- 97
2019-09-22 00:00:00 15.2 28 Sudoeste 39 Sudoeste 0.8 -- -- 97
2019-09-21 23:00:00 15.2 21 Sudoeste 37 Sudoeste 0.6 -- -- 98
2019-09-21 22:00:00 15.3 25 Sudoeste 39 Sudoeste 0.4 -- -- 88
2019-09-21 21:00:00 16.1 20 Sudoeste 36 Sudoeste 0 -- -- 67
2019-09-21 20:00:00 16.3 25 Sudoeste 45 Sudoeste 0.2 -- -- 67
2019-09-21 19:00:00 16.1 32 Sudoeste 54 Sudoeste 0.6 -- -- 66
2019-09-21 18:00:00 17.6 33 Sudoeste 48 Sudoeste 0.2 -- -- 58
2019-09-21 17:00:00 16.6 28 Sudoeste 53 Sudoeste 0.4 -- -- 64
2019-09-21 16:00:00 19.6 35 Sudoeste 51 Sudoeste 0 -- -- 46
2019-09-21 15:00:00 20.2 34 Sudoeste 46 Sudoeste 0 -- -- 45
2019-09-21 14:00:00 17.9 24 Sur 35 Sur 0 -- -- 53
2019-09-21 13:00:00 16.3 24 Sur 34 Sur 0.2 -- -- 64
2019-09-21 12:00:00 15 19 Sur 28 Sur 0.2 -- -- 73
2019-09-21 11:00:00 15.5 18 Sur 26 Sur 0.2 -- -- 69
2019-09-21 10:00:00 14.4 11 Sur 18 Sur 0.2 -- -- 70
2019-09-21 09:00:00 14.7 11 Sur 21 Sur 0 -- -- 61
2019-09-21 08:00:00 13.5 8 Sur 14 Sur 0 -- -- 65
2019-09-21 07:00:00 13.9 7 Sur 17 Sur 0 -- -- 61
2019-09-21 06:00:00 15 9 Sur 23 Sur 0 -- -- 56
2019-09-21 05:00:00 15.1 15 Sudoeste 29 Sudoeste 0 -- -- 59
2019-09-21 04:00:00 13.6 13 Sudoeste 18 Sudoeste 0 -- -- 67
2019-09-21 03:00:00 13.5 9 Sudoeste 16 Sudoeste 0 -- -- 66
2019-09-21 02:00:00 14.1 9 Sudoeste 15 Sudoeste 0 -- -- 63
2019-09-21 01:00:00 15.2 9 Sudoeste 19 Sudoeste 0 -- -- 57
2019-09-21 00:00:00 17.3 14 Sudoeste 19 Sudoeste 0 -- -- 47
2019-09-20 23:00:00 16.6 10 Sudoeste 20 Sudoeste 0 -- -- 46
2019-09-20 22:00:00 18.4 13 Sur 25 Sur 0 -- -- 38
2019-09-20 21:00:00 19.6 19 Sudoeste 30 Sudoeste 0 -- -- 32
2019-09-20 20:00:00 21.9 23 Sudoeste 43 Sudoeste 0 -- -- 27
2019-09-20 19:00:00 23.6 22 Sudoeste 35 Sur 0 -- -- 22
2019-09-20 18:00:00 25 23 Sur 36 Sudoeste 0 -- -- 20
2019-09-20 17:00:00 24 22 Sudoeste 36 Sudoeste 0 -- -- 21
2019-09-20 16:00:00 26 24 Sudoeste 39 Sudoeste 0 -- -- 16
2019-09-20 15:00:00 24.3 19 Sudoeste 33 Sudoeste 0 -- -- 17
2019-09-20 14:00:00 23.9 18 Sudoeste 40 Sudoeste 0 -- -- 18
2019-09-20 13:00:00 23.2 16 Sudoeste 27 Sudoeste 0 -- -- 28
2019-09-20 12:00:00 21.7 17 Sudoeste 27 Sudoeste 0 -- -- 34
2019-09-20 11:00:00 20.3 2 Sur 12 Este 0 -- -- 42
2019-09-20 10:00:00 16.5 5 Este 18 Nordeste 0 -- -- 60
2019-09-20 09:00:00 13.8 13 Nordeste 22 Nordeste 0 -- -- 71
2019-09-20 08:00:00 13.6 16 Nordeste 19 Nordeste 0 -- -- 67
2019-09-20 07:00:00 13.7 15 Nordeste 22 Nordeste 0 -- -- 63
2019-09-20 06:00:00 13 8 Nordeste 10 Nordeste 0 -- -- 61
2019-09-20 05:00:00 12.9 9 Nordeste 14 Nordeste 0 -- -- 59
2019-09-20 04:00:00 14.9 3 Nordeste 9 Sur 0 -- -- 53
2019-09-20 03:00:00 15.9 4 Sur 15 Sudoeste 0 -- -- 47
2019-09-20 02:00:00 13.8 8 Nordeste 12 Nordeste 0 -- -- 57
2019-09-20 01:00:00 15.8 6 Nordeste 10 Nordeste 0 -- -- 48
2019-09-20 00:00:00 15.9 6 Nordeste 10 Nordeste 0 -- -- 49
2019-09-19 23:00:00 18.6 3 Sudeste 12 Sudoeste 0 -- -- 40
2019-09-19 22:00:00 18.1 6 Este 10 Nordeste 0 -- -- 42
2019-09-19 21:00:00 19.4 9 Este 10 Este 0 -- -- 34
2019-09-19 20:00:00 23.2 8 Este 14 Nordeste 0 -- -- 24
2019-09-19 19:00:00 26.5 12 Nordeste 18 Este 0 -- -- 15
2019-09-19 18:00:00 28 5 Este 15 Nordeste 0 -- -- 13
2019-09-19 17:00:00 27.6 8 Nordeste 17 Norte 0 -- -- 15
2019-09-19 16:00:00 28 6 Sudoeste 22 Sudeste 0 -- -- 16
2019-09-19 15:00:00 26.8 5 Sudoeste 24 Este 0 -- -- 21
2019-09-19 14:00:00 25.5 12 Este 23 Nordeste 0 -- -- 25
2019-09-19 13:00:00 23.1 13 Nordeste 23 Nordeste 0 -- -- 37
2019-09-19 12:00:00 20.4 15 Nordeste 23 Este 0 -- -- 70
2019-09-19 11:00:00 17.7 15 Este 21 Nordeste 0 -- -- 83
2019-09-19 10:00:00 14.3 19 Nordeste 26 Este 0 -- -- 100
2019-09-19 09:00:00 13.4 17 Nordeste 24 Nordeste 0 -- -- 100
2019-09-19 08:00:00 12 17 Nordeste 23 Nordeste 0 -- -- 99
2019-09-19 07:00:00 13.1 17 Nordeste 22 Nordeste 0 -- -- 92
2019-09-19 06:00:00 12.2 13 Nordeste 18 Nordeste 0 -- -- 82
2019-09-19 05:00:00 12 6 Nordeste 14 Nordeste 0 -- -- 76
2019-09-19 04:00:00 12 10 Nordeste 15 Nordeste 0 -- -- 70
2019-09-19 03:00:00 12.6 10 Nordeste 15 Nordeste 0 -- -- 67
2019-09-19 02:00:00 15.6 3 Este 16 Este 0 -- -- 55
2019-09-19 01:00:00 15.3 8 Este 14 Este 0 -- -- 58
2019-09-19 00:00:00 14.4 10 Nordeste 16 Nordeste 0 -- -- 58
2019-09-18 23:00:00 15.9 7 Este 11 Este 0 -- -- 52
2019-09-18 22:00:00 15.6 9 Este -- -- 0 -- -- 53
2019-09-18 21:00:00 18.3 5 Este 11 Este 0 -- -- 41
2019-09-18 20:00:00 23.8 7 Nordeste 14 Nordeste 0 -- -- 24
2019-09-18 19:00:00 27.7 3 Este 19 Nordeste 0 -- -- 15
2019-09-18 18:00:00 26.1 3 Este 20 Nordeste 0 -- -- 17
2019-09-18 17:00:00 26.1 13 Nordeste 25 Este 0 -- -- 19
2019-09-18 16:00:00 25.8 11 Nordeste 21 Nordeste 0 -- -- 21
2019-09-18 15:00:00 25.2 10 Nordeste 20 Nordeste 0 -- -- 20
2019-09-18 14:00:00 23.5 6 Norte 20 Este 0 -- -- 29
2019-09-18 13:00:00 21.6 12 Este 22 Este 0 -- -- 37
2019-09-18 12:00:00 20.2 15 Este 22 Este 0 -- -- 60
2019-09-18 11:00:00 17.1 15 Nordeste 21 Nordeste 0 -- -- 74
2019-09-18 10:00:00 15.5 10 Este 15 Este 0 -- -- 83
2019-09-18 09:00:00 12.4 11 Nordeste 13 Nordeste 0 -- -- 100
2019-09-18 08:00:00 11.2 5 Este 10 Nordeste 0 -- -- 98
2019-09-18 07:00:00 12.4 2 Este 20 Este 0 -- -- 98
2019-09-18 06:00:00 12.5 15 Este 20 Este 0 -- -- 96
2019-09-18 05:00:00 12.9 15 Nordeste 20 Nordeste 0 -- -- 76
2019-09-18 04:00:00 13 12 Nordeste 23 Nordeste 0 -- -- 72
2019-09-18 03:00:00 13.8 20 Nordeste 25 Nordeste 0 -- -- 71
2019-09-18 02:00:00 13.7 6 Nordeste 9 Noroeste 0 -- -- 69
2019-09-18 01:00:00 14.8 6 Norte 13 Nordeste 0 -- -- 63
2019-09-18 00:00:00 14.9 6 Este 22 Este 0 -- -- 63
2019-09-17 23:00:00 16.7 10 Este 18 Este 0 -- -- 51
2019-09-17 22:00:00 17.5 12 Sur 26 Sur 0 -- -- 50
2019-09-17 21:00:00 18.6 4 Sudoeste 11 Sudeste 0 -- -- 42